Pagina principale
METAR-TAF:

METAR-TAF

Aeroporti :

Aeroporto Internazionale di Mostar

Mostar, Bosnia-Erzegovina

latitudine: 43-21N, longitudine: 017-48E, altezza: 108 m

Osservazione

Il bollettino è stato emesso 1 ora e 12 minuti fa, alle 01:00 UTC
Vento 2 kt da direzioni variabili
Temperature 12°C
Umidità 94%
Pressione 1016 hPa
Visibilità: 9000 m
Nubi sparse ad un'altezza di 6000 ft

METAR: LQMO 160100Z VRB02KT 9000 SCT060 12/11 Q1016

Ora: 04:12 (02:12 UTC)

Previsione

Il bollettino è stato emesso 3 ore e 12 minuti fa, alle 23:00 UTC
Previsione valida dal 16 alle 00 UTC al 16 alle 24 UTC
Vento 5 kt da sud/sud-est
Visibilità 10 km o più
Nubi sparse ad un'altezza di 5000 ft
Probabilità 30% :
Temporaneamente
dal 16 alle 12 UTC al 16 alle 16 UTC
Vento 10 kt da sud-ovest

TAF: LQMO 152300Z 1600/1624 15005KT 9999 SCT050 TX25/1613Z TN10/1605Z PROB30 TEMPO 1612/1616 22010KT

Osservazioni e previsioni meteorologiche di più di 4000 aeroporti (messaggi METAR e TAF).

Le stazioni disponibili sono rappresentate dai dischi gialli e rossi sulla carta.

Puntare il mouse per vedere il nome della stazione.

Clicca sopra per visualizzare le osservazioni e previsioni meteorologiche.

Per cambiare la mappa : fare clic sui pulsanti verdi con una croce nera per ingrandire, il pulsante verde con un trattino per diminuire, o sulla freccia verde per le mappe adiacenti.


METAR-TAF: